sensor_id;sensor_type;location;lat;lon;timestamp;P1;durP1;ratioP1;P2;durP2;ratioP2
50932;SDS011;36921;49.006;9.292;2023-03-17T00:00:14;4.18;;;2.28;;
50932;SDS011;36921;49.006;9.292;2023-03-17T00:02:41;4.45;;;2.40;;
50932;SDS011;36921;49.006;9.292;2023-03-17T00:05:13;3.87;;;2.20;;
50932;SDS011;36921;49.006;9.292;2023-03-17T00:07:44;4.32;;;2.03;;
50932;SDS011;36921;49.006;9.292;2023-03-17T00:10:15;3.55;;;1.88;;
50932;SDS011;36921;49.006;9.292;2023-03-17T00:12:44;6.18;;;2.30;;
50932;SDS011;36921;49.006;9.292;2023-03-17T00:15:10;4.18;;;2.40;;
50932;SDS011;36921;49.006;9.292;2023-03-17T00:17:36;5.10;;;2.58;;
50932;SDS011;36921;49.006;9.292;2023-03-17T00:20:02;7.68;;;2.60;;
50932;SDS011;36921;49.006;9.292;2023-03-17T00:22:29;6.43;;;2.25;;
50932;SDS011;36921;49.006;9.292;2023-03-17T00:24:54;4.18;;;2.20;;
50932;SDS011;36921;49.006;9.292;2023-03-17T00:27:20;5.53;;;2.45;;
50932;SDS011;36921;49.006;9.292;2023-03-17T00:29:45;6.40;;;2.10;;
50932;SDS011;36921;49.006;9.292;2023-03-17T00:32:17;5.25;;;2.30;;
50932;SDS011;36921;49.006;9.292;2023-03-17T00:34:45;4.72;;;2.13;;
50932;SDS011;36921;49.006;9.292;2023-03-17T00:37:11;4.25;;;1.73;;
50932;SDS011;36921;49.006;9.292;2023-03-17T00:39:37;4.05;;;2.15;;
50932;SDS011;36921;49.006;9.292;2023-03-17T00:42:03;6.07;;;2.72;;
50932;SDS011;36921;49.006;9.292;2023-03-17T00:44:30;3.58;;;2.17;;
50932;SDS011;36921;49.006;9.292;2023-03-17T00:46:55;3.67;;;2.25;;
50932;SDS011;36921;49.006;9.292;2023-03-17T00:49:22;4.75;;;2.42;;
50932;SDS011;36921;49.006;9.292;2023-03-17T00:51:49;6.53;;;2.38;;
50932;SDS011;36921;49.006;9.292;2023-03-17T00:54:15;4.85;;;2.22;;
50932;SDS011;36921;49.006;9.292;2023-03-17T00:56:42;3.47;;;1.92;;
50932;SDS011;36921;49.006;9.292;2023-03-17T00:59:19;4.57;;;2.40;;
50932;SDS011;36921;49.006;9.292;2023-03-17T01:01:49;3.88;;;1.80;;
50932;SDS011;36921;49.006;9.292;2023-03-17T01:04:15;4.35;;;2.45;;
50932;SDS011;36921;49.006;9.292;2023-03-17T01:06:41;5.07;;;2.42;;
50932;SDS011;36921;49.006;9.292;2023-03-17T01:09:07;4.43;;;1.95;;
50932;SDS011;36921;49.006;9.292;2023-03-17T01:11:36;3.47;;;2.03;;
50932;SDS011;36921;49.006;9.292;2023-03-17T01:14:02;3.80;;;2.70;;
50932;SDS011;36921;49.006;9.292;2023-03-17T01:16:27;4.93;;;2.55;;
50932;SDS011;36921;49.006;9.292;2023-03-17T01:18:53;4.47;;;2.30;;
50932;SDS011;36921;49.006;9.292;2023-03-17T01:21:18;4.10;;;2.50;;
50932;SDS011;36921;49.006;9.292;2023-03-17T01:23:44;5.15;;;1.98;;
50932;SDS011;36921;49.006;9.292;2023-03-17T01:26:09;3.53;;;2.30;;
50932;SDS011;36921;49.006;9.292;2023-03-17T01:28:35;2.90;;;2.05;;
50932;SDS011;36921;49.006;9.292;2023-03-17T01:31:01;3.28;;;1.95;;
50932;SDS011;36921;49.006;9.292;2023-03-17T01:33:27;3.83;;;2.10;;
50932;SDS011;36921;49.006;9.292;2023-03-17T01:35:53;4.40;;;2.53;;
50932;SDS011;36921;49.006;9.292;2023-03-17T01:38:18;4.07;;;2.20;;
50932;SDS011;36921;49.006;9.292;2023-03-17T01:40:45;5.72;;;2.10;;
50932;SDS011;36921;49.006;9.292;2023-03-17T01:43:18;4.13;;;2.20;;
50932;SDS011;36921;49.006;9.292;2023-03-17T01:48:32;3.28;;;2.03;;
50932;SDS011;36921;49.006;9.292;2023-03-17T01:51:02;3.42;;;1.98;;
50932;SDS011;36921;49.006;9.292;2023-03-17T01:53:30;3.42;;;2.25;;
50932;SDS011;36921;49.006;9.292;2023-03-17T01:55:56;6.22;;;2.03;;
50932;SDS011;36921;49.006;9.292;2023-03-17T01:58:21;3.92;;;2.10;;
50932;SDS011;36921;49.006;9.292;2023-03-17T02:00:49;3.88;;;2.28;;
50932;SDS011;36921;49.006;9.292;2023-03-17T02:03:15;3.70;;;2.00;;
50932;SDS011;36921;49.006;9.292;2023-03-17T02:05:41;3.53;;;2.03;;
50932;SDS011;36921;49.006;9.292;2023-03-17T02:08:12;3.40;;;2.03;;
50932;SDS011;36921;49.006;9.292;2023-03-17T02:10:53;3.25;;;1.77;;
50932;SDS011;36921;49.006;9.292;2023-03-17T02:13:21;4.47;;;1.90;;
50932;SDS011;36921;49.006;9.292;2023-03-17T02:15:48;3.75;;;2.00;;
50932;SDS011;36921;49.006;9.292;2023-03-17T02:18:15;4.05;;;1.90;;
50932;SDS011;36921;49.006;9.292;2023-03-17T02:23:30;2.10;;;1.33;;
50932;SDS011;36921;49.006;9.292;2023-03-17T02:25:56;4.78;;;2.10;;
50932;SDS011;36921;49.006;9.292;2023-03-17T02:28:22;5.97;;;1.90;;
50932;SDS011;36921;49.006;9.292;2023-03-17T02:30:52;3.75;;;1.98;;
50932;SDS011;36921;49.006;9.292;2023-03-17T02:33:18;4.15;;;2.10;;
50932;SDS011;36921;49.006;9.292;2023-03-17T02:35:43;4.28;;;1.67;;
50932;SDS011;36921;49.006;9.292;2023-03-17T02:38:09;3.70;;;1.80;;
50932;SDS011;36921;49.006;9.292;2023-03-17T02:40:34;5.07;;;2.35;;
50932;SDS011;36921;49.006;9.292;2023-03-17T02:43:00;3.35;;;2.30;;
50932;SDS011;36921;49.006;9.292;2023-03-17T02:45:26;4.28;;;2.10;;
50932;SDS011;36921;49.006;9.292;2023-03-17T02:47:51;3.40;;;2.00;;
50932;SDS011;36921;49.006;9.292;2023-03-17T02:50:20;4.22;;;2.13;;
50932;SDS011;36921;49.006;9.292;2023-03-17T02:52:47;5.20;;;1.85;;
50932;SDS011;36921;49.006;9.292;2023-03-17T02:55:13;5.57;;;2.10;;
50932;SDS011;36921;49.006;9.292;2023-03-17T02:57:39;5.32;;;2.28;;
50932;SDS011;36921;49.006;9.292;2023-03-17T03:00:05;3.20;;;1.83;;
50932;SDS011;36921;49.006;9.292;2023-03-17T03:02:32;4.85;;;2.45;;
50932;SDS011;36921;49.006;9.292;2023-03-17T03:04:57;5.35;;;2.40;;
50932;SDS011;36921;49.006;9.292;2023-03-17T03:07:22;4.95;;;2.67;;
50932;SDS011;36921;49.006;9.292;2023-03-17T03:09:47;5.70;;;2.70;;
50932;SDS011;36921;49.006;9.292;2023-03-17T03:12:13;5.10;;;2.67;;
50932;SDS011;36921;49.006;9.292;2023-03-17T03:14:38;8.75;;;2.45;;
50932;SDS011;36921;49.006;9.292;2023-03-17T03:17:04;5.07;;;2.40;;
50932;SDS011;36921;49.006;9.292;2023-03-17T03:19:30;3.90;;;2.25;;
50932;SDS011;36921;49.006;9.292;2023-03-17T03:21:55;6.90;;;2.60;;
50932;SDS011;36921;49.006;9.292;2023-03-17T03:24:20;5.22;;;2.92;;
50932;SDS011;36921;49.006;9.292;2023-03-17T03:26:46;5.35;;;2.70;;
50932;SDS011;36921;49.006;9.292;2023-03-17T03:29:12;5.43;;;2.60;;
50932;SDS011;36921;49.006;9.292;2023-03-17T03:31:37;4.22;;;2.63;;
50932;SDS011;36921;49.006;9.292;2023-03-17T03:34:02;3.67;;;2.42;;
50932;SDS011;36921;49.006;9.292;2023-03-17T03:36:28;4.60;;;2.80;;
50932;SDS011;36921;49.006;9.292;2023-03-17T03:38:53;3.83;;;2.10;;
50932;SDS011;36921;49.006;9.292;2023-03-17T03:41:19;4.00;;;2.60;;
50932;SDS011;36921;49.006;9.292;2023-03-17T03:43:44;4.13;;;2.33;;
50932;SDS011;36921;49.006;9.292;2023-03-17T03:46:10;3.35;;;2.00;;
50932;SDS011;36921;49.006;9.292;2023-03-17T03:48:35;4.70;;;2.72;;
50932;SDS011;36921;49.006;9.292;2023-03-17T03:51:00;3.28;;;2.08;;
50932;SDS011;36921;49.006;9.292;2023-03-17T03:53:27;7.18;;;2.28;;
50932;SDS011;36921;49.006;9.292;2023-03-17T03:55:53;5.15;;;2.20;;
50932;SDS011;36921;49.006;9.292;2023-03-17T03:58:20;5.35;;;2.50;;
50932;SDS011;36921;49.006;9.292;2023-03-17T04:00:45;8.57;;;2.33;;
50932;SDS011;36921;49.006;9.292;2023-03-17T04:03:11;5.20;;;2.53;;
50932;SDS011;36921;49.006;9.292;2023-03-17T04:05:37;7.72;;;2.70;;
50932;SDS011;36921;49.006;9.292;2023-03-17T04:08:02;4.70;;;2.15;;
50932;SDS011;36921;49.006;9.292;2023-03-17T04:10:28;3.92;;;2.47;;
50932;SDS011;36921;49.006;9.292;2023-03-17T04:12:53;4.57;;;2.40;;
50932;SDS011;36921;49.006;9.292;2023-03-17T04:15:19;6.80;;;2.67;;
50932;SDS011;36921;49.006;9.292;2023-03-17T04:17:51;4.47;;;2.75;;
50932;SDS011;36921;49.006;9.292;2023-03-17T04:23:44;4.30;;;2.70;;
50932;SDS011;36921;49.006;9.292;2023-03-17T04:36:58;3.80;;;2.53;;
50932;SDS011;36921;49.006;9.292;2023-03-17T04:43:03;4.32;;;2.30;;
50932;SDS011;36921;49.006;9.292;2023-03-17T04:49:19;4.13;;;2.50;;
50932;SDS011;36921;49.006;9.292;2023-03-17T04:51:45;7.25;;;2.85;;
50932;SDS011;36921;49.006;9.292;2023-03-17T04:54:10;4.82;;;2.28;;
50932;SDS011;36921;49.006;9.292;2023-03-17T04:56:36;4.25;;;2.30;;
50932;SDS011;36921;49.006;9.292;2023-03-17T04:59:01;6.20;;;2.72;;
50932;SDS011;36921;49.006;9.292;2023-03-17T05:01:28;6.68;;;3.05;;
50932;SDS011;36921;49.006;9.292;2023-03-17T05:03:54;5.55;;;3.25;;
50932;SDS011;36921;49.006;9.292;2023-03-17T05:06:20;9.02;;;3.78;;
50932;SDS011;36921;49.006;9.292;2023-03-17T05:08:45;9.05;;;3.50;;
50932;SDS011;36921;49.006;9.292;2023-03-17T05:11:12;7.30;;;3.08;;
50932;SDS011;36921;49.006;9.292;2023-03-17T05:13:38;8.65;;;3.08;;
50932;SDS011;36921;49.006;9.292;2023-03-17T05:16:05;5.78;;;3.22;;
50932;SDS011;36921;49.006;9.292;2023-03-17T05:18:31;6.32;;;3.13;;
50932;SDS011;36921;49.006;9.292;2023-03-17T05:20:58;5.90;;;3.15;;
50932;SDS011;36921;49.006;9.292;2023-03-17T05:23:24;5.68;;;2.92;;
50932;SDS011;36921;49.006;9.292;2023-03-17T05:25:50;8.35;;;3.28;;
50932;SDS011;36921;49.006;9.292;2023-03-17T05:28:16;5.95;;;2.88;;
50932;SDS011;36921;49.006;9.292;2023-03-17T05:30:43;6.65;;;3.20;;
50932;SDS011;36921;49.006;9.292;2023-03-17T05:33:10;7.20;;;3.42;;
50932;SDS011;36921;49.006;9.292;2023-03-17T05:35:35;6.13;;;2.92;;
50932;SDS011;36921;49.006;9.292;2023-03-17T05:38:01;5.72;;;3.03;;
50932;SDS011;36921;49.006;9.292;2023-03-17T05:40:26;5.63;;;2.88;;
50932;SDS011;36921;49.006;9.292;2023-03-17T05:42:52;4.65;;;2.17;;
50932;SDS011;36921;49.006;9.292;2023-03-17T05:45:17;3.88;;;2.50;;
50932;SDS011;36921;49.006;9.292;2023-03-17T05:47:43;4.97;;;2.80;;
50932;SDS011;36921;49.006;9.292;2023-03-17T05:50:10;4.15;;;2.50;;
50932;SDS011;36921;49.006;9.292;2023-03-17T05:52:36;4.78;;;2.50;;
50932;SDS011;36921;49.006;9.292;2023-03-17T05:55:02;4.57;;;2.42;;
50932;SDS011;36921;49.006;9.292;2023-03-17T05:57:30;4.50;;;2.20;;
50932;SDS011;36921;49.006;9.292;2023-03-17T05:59:55;3.47;;;2.13;;
50932;SDS011;36921;49.006;9.292;2023-03-17T06:02:21;7.88;;;3.05;;
50932;SDS011;36921;49.006;9.292;2023-03-17T06:04:47;4.18;;;2.47;;
50932;SDS011;36921;49.006;9.292;2023-03-17T06:07:12;5.53;;;3.03;;
50932;SDS011;36921;49.006;9.292;2023-03-17T06:09:38;4.97;;;2.80;;
50932;SDS011;36921;49.006;9.292;2023-03-17T06:12:04;6.55;;;2.97;;
50932;SDS011;36921;49.006;9.292;2023-03-17T06:14:30;5.53;;;2.50;;
50932;SDS011;36921;49.006;9.292;2023-03-17T06:16:56;8.45;;;3.42;;
50932;SDS011;36921;49.006;9.292;2023-03-17T06:19:21;6.18;;;2.90;;
50932;SDS011;36921;49.006;9.292;2023-03-17T06:21:48;5.95;;;2.85;;
50932;SDS011;36921;49.006;9.292;2023-03-17T06:24:14;7.05;;;3.20;;
50932;SDS011;36921;49.006;9.292;2023-03-17T06:26:40;7.45;;;3.38;;
50932;SDS011;36921;49.006;9.292;2023-03-17T06:32:06;6.05;;;3.00;;
50932;SDS011;36921;49.006;9.292;2023-03-17T06:37:02;8.32;;;3.20;;
50932;SDS011;36921;49.006;9.292;2023-03-17T06:39:29;12.60;;;3.05;;
50932;SDS011;36921;49.006;9.292;2023-03-17T06:41:54;7.88;;;2.88;;
50932;SDS011;36921;49.006;9.292;2023-03-17T06:44:23;6.53;;;3.03;;
50932;SDS011;36921;49.006;9.292;2023-03-17T06:46:48;7.67;;;2.93;;
50932;SDS011;36921;49.006;9.292;2023-03-17T06:49:15;4.63;;;2.65;;
50932;SDS011;36921;49.006;9.292;2023-03-17T06:51:40;6.65;;;2.40;;
50932;SDS011;36921;49.006;9.292;2023-03-17T06:54:06;6.07;;;3.10;;
50932;SDS011;36921;49.006;9.292;2023-03-17T06:56:32;6.95;;;4.03;;
50932;SDS011;36921;49.006;9.292;2023-03-17T07:02:09;15.93;;;5.40;;
50932;SDS011;36921;49.006;9.292;2023-03-17T07:04:36;24.88;;;5.78;;
50932;SDS011;36921;49.006;9.292;2023-03-17T07:07:03;16.50;;;4.90;;
50932;SDS011;36921;49.006;9.292;2023-03-17T07:09:30;8.05;;;3.55;;
50932;SDS011;36921;49.006;9.292;2023-03-17T07:11:58;11.35;;;4.13;;
50932;SDS011;36921;49.006;9.292;2023-03-17T07:14:29;9.98;;;4.10;;
50932;SDS011;36921;49.006;9.292;2023-03-17T07:16:58;9.15;;;4.10;;
50932;SDS011;36921;49.006;9.292;2023-03-17T07:19:24;11.50;;;5.50;;
50932;SDS011;36921;49.006;9.292;2023-03-17T07:21:51;9.50;;;4.78;;
50932;SDS011;36921;49.006;9.292;2023-03-17T07:26:45;10.20;;;4.43;;
50932;SDS011;36921;49.006;9.292;2023-03-17T07:29:10;10.55;;;3.60;;
50932;SDS011;36921;49.006;9.292;2023-03-17T07:31:36;6.18;;;3.50;;
50932;SDS011;36921;49.006;9.292;2023-03-17T07:34:03;13.73;;;3.63;;
50932;SDS011;36921;49.006;9.292;2023-03-17T07:36:30;12.13;;;3.65;;
50932;SDS011;36921;49.006;9.292;2023-03-17T07:38:56;12.27;;;3.45;;
50932;SDS011;36921;49.006;9.292;2023-03-17T07:41:21;9.00;;;3.40;;
50932;SDS011;36921;49.006;9.292;2023-03-17T07:43:47;9.88;;;3.00;;
50932;SDS011;36921;49.006;9.292;2023-03-17T07:46:12;7.10;;;3.08;;
50932;SDS011;36921;49.006;9.292;2023-03-17T07:48:39;11.18;;;3.30;;
50932;SDS011;36921;49.006;9.292;2023-03-17T07:51:09;10.32;;;2.78;;
50932;SDS011;36921;49.006;9.292;2023-03-17T07:53:37;8.65;;;3.22;;
50932;SDS011;36921;49.006;9.292;2023-03-17T07:56:03;7.45;;;2.80;;
50932;SDS011;36921;49.006;9.292;2023-03-17T07:58:28;8.70;;;2.60;;
50932;SDS011;36921;49.006;9.292;2023-03-17T08:00:54;6.18;;;2.67;;
50932;SDS011;36921;49.006;9.292;2023-03-17T08:03:20;6.63;;;2.70;;
50932;SDS011;36921;49.006;9.292;2023-03-17T08:05:55;8.30;;;2.80;;
50932;SDS011;36921;49.006;9.292;2023-03-17T08:08:24;6.30;;;3.10;;
50932;SDS011;36921;49.006;9.292;2023-03-17T08:10:56;7.32;;;3.42;;
50932;SDS011;36921;49.006;9.292;2023-03-17T08:13:25;7.30;;;3.10;;
50932;SDS011;36921;49.006;9.292;2023-03-17T08:16:03;8.23;;;3.20;;
50932;SDS011;36921;49.006;9.292;2023-03-17T08:18:29;9.07;;;2.53;;
50932;SDS011;36921;49.006;9.292;2023-03-17T08:26:21;5.85;;;2.35;;
50932;SDS011;36921;49.006;9.292;2023-03-17T08:31:17;5.55;;;2.47;;
50932;SDS011;36921;49.006;9.292;2023-03-17T08:33:45;3.75;;;2.13;;
50932;SDS011;36921;49.006;9.292;2023-03-17T08:36:13;7.20;;;2.80;;
50932;SDS011;36921;49.006;9.292;2023-03-17T08:38:40;4.47;;;2.00;;
50932;SDS011;36921;49.006;9.292;2023-03-17T08:41:10;6.93;;;2.03;;
50932;SDS011;36921;49.006;9.292;2023-03-17T08:43:38;6.75;;;1.70;;
50932;SDS011;36921;49.006;9.292;2023-03-17T08:46:06;2.80;;;1.80;;
50932;SDS011;36921;49.006;9.292;2023-03-17T08:48:34;4.80;;;1.65;;
50932;SDS011;36921;49.006;9.292;2023-03-17T08:51:01;2.95;;;1.73;;
50932;SDS011;36921;49.006;9.292;2023-03-17T08:53:27;3.72;;;1.67;;
50932;SDS011;36921;49.006;9.292;2023-03-17T08:56:00;2.22;;;1.30;;
50932;SDS011;36921;49.006;9.292;2023-03-17T08:58:26;2.13;;;1.45;;
50932;SDS011;36921;49.006;9.292;2023-03-17T09:00:57;3.63;;;1.45;;
50932;SDS011;36921;49.006;9.292;2023-03-17T09:03:26;2.15;;;1.42;;
50932;SDS011;36921;49.006;9.292;2023-03-17T09:05:52;3.78;;;1.80;;
50932;SDS011;36921;49.006;9.292;2023-03-17T09:08:20;2.97;;;1.58;;
50932;SDS011;36921;49.006;9.292;2023-03-17T09:10:47;2.97;;;1.53;;
50932;SDS011;36921;49.006;9.292;2023-03-17T09:13:13;2.63;;;1.20;;
50932;SDS011;36921;49.006;9.292;2023-03-17T09:15:39;3.13;;;1.55;;
50932;SDS011;36921;49.006;9.292;2023-03-17T09:18:06;2.03;;;1.50;;
50932;SDS011;36921;49.006;9.292;2023-03-17T09:20:32;2.67;;;1.35;;
50932;SDS011;36921;49.006;9.292;2023-03-17T09:22:58;5.15;;;1.55;;
50932;SDS011;36921;49.006;9.292;2023-03-17T09:25:25;3.63;;;1.50;;
50932;SDS011;36921;49.006;9.292;2023-03-17T09:27:51;2.25;;;1.60;;
50932;SDS011;36921;49.006;9.292;2023-03-17T09:30:17;2.42;;;1.48;;
50932;SDS011;36921;49.006;9.292;2023-03-17T09:32:44;4.50;;;1.80;;
50932;SDS011;36921;49.006;9.292;2023-03-17T09:35:10;4.10;;;1.58;;
50932;SDS011;36921;49.006;9.292;2023-03-17T09:37:36;5.07;;;1.70;;
50932;SDS011;36921;49.006;9.292;2023-03-17T09:40:03;3.83;;;1.63;;
50932;SDS011;36921;49.006;9.292;2023-03-17T09:45:04;3.58;;;1.40;;
50932;SDS011;36921;49.006;9.292;2023-03-17T09:50:14;2.53;;;1.23;;
50932;SDS011;36921;49.006;9.292;2023-03-17T09:52:42;2.70;;;1.40;;
50932;SDS011;36921;49.006;9.292;2023-03-17T09:55:11;3.45;;;1.80;;
50932;SDS011;36921;49.006;9.292;2023-03-17T09:58:00;3.85;;;1.20;;
50932;SDS011;36921;49.006;9.292;2023-03-17T10:00:27;3.30;;;1.40;;
50932;SDS011;36921;49.006;9.292;2023-03-17T10:02:55;4.07;;;1.25;;
50932;SDS011;36921;49.006;9.292;2023-03-17T10:07:54;3.45;;;1.38;;
50932;SDS011;36921;49.006;9.292;2023-03-17T10:13:03;8.35;;;1.90;;
50932;SDS011;36921;49.006;9.292;2023-03-17T10:15:49;3.83;;;1.40;;
50932;SDS011;36921;49.006;9.292;2023-03-17T10:18:20;2.70;;;1.50;;
50932;SDS011;36921;49.006;9.292;2023-03-17T10:20:55;2.50;;;1.70;;
50932;SDS011;36921;49.006;9.292;2023-03-17T10:23:24;3.58;;;1.55;;
50932;SDS011;36921;49.006;9.292;2023-03-17T10:25:56;3.10;;;1.40;;
50932;SDS011;36921;49.006;9.292;2023-03-17T10:28:29;2.88;;;1.67;;
50932;SDS011;36921;49.006;9.292;2023-03-17T10:33:50;7.00;;;1.60;;
50932;SDS011;36921;49.006;9.292;2023-03-17T10:36:17;3.70;;;1.50;;
50932;SDS011;36921;49.006;9.292;2023-03-17T10:38:58;4.65;;;1.20;;
50932;SDS011;36921;49.006;9.292;2023-03-17T10:41:31;3.05;;;1.30;;
50932;SDS011;36921;49.006;9.292;2023-03-17T10:43:58;1.92;;;1.08;;
50932;SDS011;36921;49.006;9.292;2023-03-17T10:46:25;4.32;;;1.20;;
50932;SDS011;36921;49.006;9.292;2023-03-17T10:48:59;3.60;;;1.40;;
50932;SDS011;36921;49.006;9.292;2023-03-17T10:51:30;2.53;;;1.23;;
50932;SDS011;36921;49.006;9.292;2023-03-17T10:54:16;2.80;;;1.38;;
50932;SDS011;36921;49.006;9.292;2023-03-17T10:56:43;6.05;;;1.35;;
50932;SDS011;36921;49.006;9.292;2023-03-17T10:59:58;5.03;;;1.42;;
50932;SDS011;36921;49.006;9.292;2023-03-17T11:02:11;3.50;;;1.58;;
50932;SDS011;36921;49.006;9.292;2023-03-17T11:04:40;3.15;;;1.52;;
50932;SDS011;36921;49.006;9.292;2023-03-17T11:07:08;4.40;;;1.27;;
50932;SDS011;36921;49.006;9.292;2023-03-17T11:09:50;4.65;;;1.40;;
50932;SDS011;36921;49.006;9.292;2023-03-17T11:12:27;3.38;;;1.50;;
50932;SDS011;36921;49.006;9.292;2023-03-17T11:15:03;4.03;;;1.48;;
50932;SDS011;36921;49.006;9.292;2023-03-17T11:17:41;2.80;;;1.83;;
50932;SDS011;36921;49.006;9.292;2023-03-17T11:23:43;4.20;;;1.30;;
50932;SDS011;36921;49.006;9.292;2023-03-17T11:26:27;3.35;;;1.30;;
50932;SDS011;36921;49.006;9.292;2023-03-17T11:37:47;3.00;;;1.02;;
50932;SDS011;36921;49.006;9.292;2023-03-17T11:46:17;4.03;;;1.30;;
50932;SDS011;36921;49.006;9.292;2023-03-17T11:57:25;3.20;;;1.08;;
50932;SDS011;36921;49.006;9.292;2023-03-17T12:00:06;3.60;;;1.08;;
50932;SDS011;36921;49.006;9.292;2023-03-17T12:02:44;3.20;;;1.37;;
50932;SDS011;36921;49.006;9.292;2023-03-17T12:05:32;4.75;;;1.42;;
50932;SDS011;36921;49.006;9.292;2023-03-17T12:08:01;1.35;;;0.90;;
50932;SDS011;36921;49.006;9.292;2023-03-17T12:10:38;2.78;;;0.90;;
50932;SDS011;36921;49.006;9.292;2023-03-17T12:13:11;2.22;;;1.00;;
50932;SDS011;36921;49.006;9.292;2023-03-17T12:16:04;2.38;;;0.98;;
50932;SDS011;36921;49.006;9.292;2023-03-17T12:18:39;3.72;;;0.95;;
50932;SDS011;36921;49.006;9.292;2023-03-17T12:21:14;3.17;;;1.50;;
50932;SDS011;36921;49.006;9.292;2023-03-17T12:23:47;3.42;;;0.95;;
50932;SDS011;36921;49.006;9.292;2023-03-17T12:26:26;2.97;;;1.10;;
50932;SDS011;36921;49.006;9.292;2023-03-17T12:29:24;3.00;;;1.25;;
50932;SDS011;36921;49.006;9.292;2023-03-17T12:32:16;3.90;;;0.90;;
50932;SDS011;36921;49.006;9.292;2023-03-17T12:34:55;4.65;;;1.20;;
50932;SDS011;36921;49.006;9.292;2023-03-17T12:37:22;1.77;;;0.90;;
50932;SDS011;36921;49.006;9.292;2023-03-17T12:40:01;2.88;;;1.20;;
50932;SDS011;36921;49.006;9.292;2023-03-17T12:42:51;2.20;;;0.90;;
50932;SDS011;36921;49.006;9.292;2023-03-17T12:45:36;2.60;;;1.10;;
50932;SDS011;36921;49.006;9.292;2023-03-17T12:53:52;5.13;;;1.23;;
50932;SDS011;36921;49.006;9.292;2023-03-17T12:56:23;3.97;;;1.05;;
50932;SDS011;36921;49.006;9.292;2023-03-17T12:58:51;3.80;;;1.08;;
50932;SDS011;36921;49.006;9.292;2023-03-17T13:06:33;4.35;;;1.17;;
50932;SDS011;36921;49.006;9.292;2023-03-17T13:11:57;6.95;;;0.90;;
50932;SDS011;36921;49.006;9.292;2023-03-17T13:14:43;12.52;;;2.03;;
50932;SDS011;36921;49.006;9.292;2023-03-17T13:20:10;2.08;;;0.90;;
50932;SDS011;36921;49.006;9.292;2023-03-17T13:38:28;2.17;;;0.70;;
50932;SDS011;36921;49.006;9.292;2023-03-17T13:41:12;3.25;;;0.80;;
50932;SDS011;36921;49.006;9.292;2023-03-17T13:46:43;1.02;;;0.70;;
50932;SDS011;36921;49.006;9.292;2023-03-17T13:51:42;2.75;;;1.10;;
50932;SDS011;36921;49.006;9.292;2023-03-17T13:54:21;1.77;;;0.80;;
50932;SDS011;36921;49.006;9.292;2023-03-17T13:56:54;3.40;;;1.05;;
50932;SDS011;36921;49.006;9.292;2023-03-17T14:02:13;2.33;;;1.20;;
50932;SDS011;36921;49.006;9.292;2023-03-17T14:04:49;2.33;;;0.98;;
50932;SDS011;36921;49.006;9.292;2023-03-17T14:07:18;3.03;;;0.90;;
50932;SDS011;36921;49.006;9.292;2023-03-17T14:09:49;1.63;;;0.70;;
50932;SDS011;36921;49.006;9.292;2023-03-17T14:17:24;4.70;;;0.80;;
50932;SDS011;36921;49.006;9.292;2023-03-17T14:20:03;3.72;;;0.60;;
50932;SDS011;36921;49.006;9.292;2023-03-17T14:22:54;1.58;;;0.68;;
50932;SDS011;36921;49.006;9.292;2023-03-17T14:25:38;4.85;;;0.90;;
50932;SDS011;36921;49.006;9.292;2023-03-17T14:28:09;4.47;;;0.80;;
50932;SDS011;36921;49.006;9.292;2023-03-17T14:30:37;4.80;;;0.80;;
50932;SDS011;36921;49.006;9.292;2023-03-17T14:36:06;1.95;;;0.68;;
50932;SDS011;36921;49.006;9.292;2023-03-17T14:38:34;1.38;;;0.50;;
50932;SDS011;36921;49.006;9.292;2023-03-17T14:41:05;3.93;;;0.60;;
50932;SDS011;36921;49.006;9.292;2023-03-17T14:43:31;1.10;;;0.50;;
50932;SDS011;36921;49.006;9.292;2023-03-17T14:48:34;3.13;;;0.60;;
50932;SDS011;36921;49.006;9.292;2023-03-17T14:53:39;2.33;;;0.45;;
50932;SDS011;36921;49.006;9.292;2023-03-17T14:56:07;1.33;;;0.73;;
50932;SDS011;36921;49.006;9.292;2023-03-17T14:58:39;0.68;;;0.47;;
50932;SDS011;36921;49.006;9.292;2023-03-17T15:01:42;2.40;;;0.68;;
50932;SDS011;36921;49.006;9.292;2023-03-17T15:07:02;3.90;;;0.80;;
50932;SDS011;36921;49.006;9.292;2023-03-17T15:14:41;7.25;;;1.00;;
50932;SDS011;36921;49.006;9.292;2023-03-17T15:17:14;2.92;;;0.95;;
50932;SDS011;36921;49.006;9.292;2023-03-17T15:19:46;2.65;;;0.73;;
50932;SDS011;36921;49.006;9.292;2023-03-17T15:22:57;5.00;;;0.77;;
50932;SDS011;36921;49.006;9.292;2023-03-17T15:27:41;4.53;;;0.73;;
50932;SDS011;36921;49.006;9.292;2023-03-17T15:30:08;4.55;;;0.95;;
50932;SDS011;36921;49.006;9.292;2023-03-17T15:32:34;1.25;;;0.70;;
50932;SDS011;36921;49.006;9.292;2023-03-17T15:34:59;2.67;;;0.70;;
50932;SDS011;36921;49.006;9.292;2023-03-17T15:37:26;5.47;;;0.80;;
50932;SDS011;36921;49.006;9.292;2023-03-17T15:39:54;3.93;;;0.93;;
50932;SDS011;36921;49.006;9.292;2023-03-17T15:42:20;10.32;;;0.88;;
50932;SDS011;36921;49.006;9.292;2023-03-17T15:44:50;11.32;;;1.65;;
50932;SDS011;36921;49.006;9.292;2023-03-17T15:47:17;7.32;;;1.10;;
50932;SDS011;36921;49.006;9.292;2023-03-17T15:49:45;7.63;;;1.35;;
50932;SDS011;36921;49.006;9.292;2023-03-17T15:52:18;5.25;;;1.73;;
50932;SDS011;36921;49.006;9.292;2023-03-17T15:54:47;9.70;;;1.10;;
50932;SDS011;36921;49.006;9.292;2023-03-17T15:57:13;4.63;;;1.33;;
50932;SDS011;36921;49.006;9.292;2023-03-17T15:59:39;4.80;;;1.08;;
50932;SDS011;36921;49.006;9.292;2023-03-17T16:05:00;4.20;;;1.33;;
50932;SDS011;36921;49.006;9.292;2023-03-17T16:07:35;5.63;;;1.00;;
50932;SDS011;36921;49.006;9.292;2023-03-17T16:10:09;2.55;;;1.00;;
50932;SDS011;36921;49.006;9.292;2023-03-17T16:12:40;4.90;;;1.42;;
50932;SDS011;36921;49.006;9.292;2023-03-17T16:15:06;6.65;;;1.02;;
50932;SDS011;36921;49.006;9.292;2023-03-17T16:17:31;3.88;;;1.48;;
50932;SDS011;36921;49.006;9.292;2023-03-17T16:19:57;7.40;;;1.30;;
50932;SDS011;36921;49.006;9.292;2023-03-17T16:22:37;4.75;;;1.13;;
50932;SDS011;36921;49.006;9.292;2023-03-17T16:27:53;2.78;;;1.20;;
50932;SDS011;36921;49.006;9.292;2023-03-17T16:30:24;4.53;;;1.55;;
50932;SDS011;36921;49.006;9.292;2023-03-17T16:32:53;9.27;;;2.33;;
50932;SDS011;36921;49.006;9.292;2023-03-17T16:35:22;10.90;;;3.55;;
50932;SDS011;36921;49.006;9.292;2023-03-17T16:37:48;14.25;;;3.15;;
50932;SDS011;36921;49.006;9.292;2023-03-17T16:42:45;3.13;;;1.40;;
50932;SDS011;36921;49.006;9.292;2023-03-17T16:45:14;4.50;;;1.20;;
50932;SDS011;36921;49.006;9.292;2023-03-17T16:47:46;10.02;;;1.98;;
50932;SDS011;36921;49.006;9.292;2023-03-17T16:50:15;7.82;;;1.90;;
50932;SDS011;36921;49.006;9.292;2023-03-17T16:52:45;5.20;;;1.85;;
50932;SDS011;36921;49.006;9.292;2023-03-17T16:55:11;9.90;;;1.80;;
50932;SDS011;36921;49.006;9.292;2023-03-17T16:57:37;6.32;;;1.85;;
50932;SDS011;36921;49.006;9.292;2023-03-17T17:00:04;7.15;;;1.75;;
50932;SDS011;36921;49.006;9.292;2023-03-17T17:02:31;7.95;;;1.75;;
50932;SDS011;36921;49.006;9.292;2023-03-17T17:04:56;11.48;;;1.95;;
50932;SDS011;36921;49.006;9.292;2023-03-17T17:07:22;4.93;;;1.88;;
50932;SDS011;36921;49.006;9.292;2023-03-17T17:09:47;7.20;;;2.10;;
50932;SDS011;36921;49.006;9.292;2023-03-17T17:12:12;7.95;;;1.98;;
50932;SDS011;36921;49.006;9.292;2023-03-17T17:14:38;7.57;;;2.40;;
50932;SDS011;36921;49.006;9.292;2023-03-17T17:17:03;13.32;;;2.70;;
50932;SDS011;36921;49.006;9.292;2023-03-17T17:19:29;4.28;;;2.28;;
50932;SDS011;36921;49.006;9.292;2023-03-17T17:21:55;5.15;;;2.15;;
50932;SDS011;36921;49.006;9.292;2023-03-17T17:24:20;5.43;;;2.20;;
50932;SDS011;36921;49.006;9.292;2023-03-17T17:26:46;12.75;;;3.70;;
50932;SDS011;36921;49.006;9.292;2023-03-17T17:29:11;8.32;;;3.75;;
50932;SDS011;36921;49.006;9.292;2023-03-17T17:31:39;8.32;;;2.80;;
50932;SDS011;36921;49.006;9.292;2023-03-17T17:34:05;4.55;;;2.53;;
50932;SDS011;36921;49.006;9.292;2023-03-17T17:36:30;6.80;;;2.17;;